Date,TemperatureHighF,TemperatureAvgF,TemperatureLowF,DewpointHighF,DewpointAvgF,DewpointLowF,HumidityHigh,HumidityAvg,HumidityLow,PressureMaxIn,PressureMinIn,WindSpeedMaxMPH,WindSpeedAvgMPH,GustSpeedMaxMPH,PrecipitationSumIn
2014-1-1,31,20,10,-100,-100,-100,0,0,100,0.00,40.00,0,-999,0,0.00
2014-1-2,28,25,16,-100,-100,-100,0,0,100,0.00,40.00,0,-999,0,0.00
2014-1-3,27,24,2,-100,-100,-100,0,0,100,0.00,40.00,0,-999,0,0.00
2014-1-4,22,4,-12,-100,-100,-100,0,0,100,0.00,40.00,0,-999,0,0.00
2014-1-5,13,-2,-19,-100,-100,-100,0,0,100,0.00,40.00,0,-999,0,0.00
2014-1-6,23,-1,-21,-100,-100,-100,0,0,100,0.00,40.00,0,-999,0,0.00
2014-1-7,24,9,-2,-100,-100,-100,0,0,100,0.00,40.00,0,-999,0,0.00
2014-1-8,25,21,17,-100,-100,-100,0,0,100,0.00,40.00,0,-999,0,0.00
2014-1-9,26,18,16,-100,-100,-100,0,0,100,0.00,40.00,0,-999,0,0.00
2014-1-10,30,24,17,-100,-100,-100,0,0,100,0.00,40.00,0,-999,0,0.00
2014-1-11,36,31,25,-100,-100,-100,0,0,100,0.00,40.00,0,-999,0,0.00
2014-1-12,26,22,19,-100,-100,-100,0,0,100,0.00,40.00,0,-999,0,0.00
2014-1-13,30,26,21,-100,-100,-100,0,0,100,0.00,40.00,0,-999,0,0.00
2014-1-14,39,29,23,-100,-100,-100,0,0,100,0.00,40.00,0,-999,0,0.00
2014-1-15,35,26,16,-100,-100,-100,0,0,100,0.00,40.00,0,-999,0,0.00
2014-1-16,30,19,12,-100,-100,-100,0,0,100,0.00,40.00,0,-999,0,0.00
2014-1-17,35,18,10,-100,-100,-100,0,0,100,0.00,40.00,0,-999,0,0.00
2014-1-18,35,12,-6,-100,-100,-100,0,0,100,0.00,40.00,0,-999,0,0.00
2014-1-19,36,22,1,-100,-100,-100,0,0,100,0.00,40.00,0,-999,0,0.00
2014-1-20,40,21,-4,-100,-100,-100,0,0,100,0.00,40.00,0,-999,0,0.00
2014-1-21,36,20,-9,-100,-100,-100,0,0,100,0.00,40.00,0,-999,0,0.00
2014-1-22,29,17,1,-100,-100,-100,0,0,100,0.00,40.00,0,-999,0,0.00
2014-1-23,31,19,-3,-100,-100,-100,0,0,100,0.00,40.00,0,-999,0,0.00
2014-1-24,37,18,-8,-100,-100,-100,0,0,100,0.00,40.00,0,-999,0,0.00
2014-1-25,39,22,-7,-100,-100,-100,0,0,100,0.00,40.00,0,-999,0,0.00
2014-1-26,21,16,-1,-100,-100,-100,0,0,100,0.00,40.00,0,-999,0,0.00
2014-1-27,26,12,-9,-100,-100,-100,0,0,100,0.00,40.00,0,-999,0,0.00
2014-1-28,23,11,-7,-100,-100,-100,0,0,100,0.00,40.00,0,-999,0,0.00
2014-1-29,24,19,15,-100,-100,-100,0,0,100,0.00,40.00,0,-999,0,0.00
2014-1-30,33,26,23,-100,-100,-100,0,0,100,0.00,40.00,0,-999,0,0.00
2014-1-31,28,16,1,-100,-100,-100,0,0,100,0.00,40.00,0,-999,0,0.00
2014-2-1,20,10,-8,-100,-100,-100,0,0,100,0.00,40.00,0,-999,0,0.00
2014-2-2,25,11,-2,-100,-100,-100,0,0,100,0.00,40.00,0,-999,0,0.00
2014-2-3,24,14,4,-100,-100,-100,0,0,100,0.00,40.00,0,-999,0,0.00
2014-2-4,10,-4,-14,-100,-100,-100,0,0,100,0.00,40.00,0,-999,0,0.00
2014-2-5,2,-12,-27,-100,-100,-100,0,0,100,0.00,40.00,0,-999,0,0.00
2014-2-6,5,-3,-12,-100,-100,-100,0,0,100,0.00,40.00,0,-999,0,0.00
2014-2-7,25,11,-3,-100,-100,-100,0,0,100,0.00,40.00,0,-999,0,0.00
2014-2-8,25,25,25,-100,-100,-100,0,0,100,0.00,40.00,0,-999,0,0.00
2014-2-9,29,29,29,-100,-100,-100,0,0,100,0.00,40.00,0,-999,0,0.00
2014-2-11,26,25,24,-100,-100,-100,0,0,100,0.00,40.00,0,-999,0,0.00
2014-2-12,32,29,25,-100,-100,-100,0,0,100,0.00,40.00,0,-999,0,0.00
2014-2-13,41,32,27,-100,-100,-100,0,0,100,0.00,40.00,0,-999,0,0.00
2014-2-14,30,24,12,-100,-100,-100,0,0,100,0.00,40.00,0,-999,0,0.00
2014-2-15,39,34,28,-100,-100,-100,0,0,100,0.00,40.00,0,-999,0,0.00
2014-2-16,36,32,16,-100,-100,-100,0,0,100,0.00,40.00,0,-999,0,0.00
2014-2-17,30,23,19,-100,-100,-100,0,0,100,0.00,40.00,0,-999,0,0.00
2014-2-18,32,25,17,-100,-100,-100,0,0,100,0.00,40.00,0,-999,0,0.00
2014-2-19,31,25,13,-100,-100,-100,0,0,100,0.00,40.00,0,-999,0,0.00
2014-2-20,22,13,6,-100,-100,-100,0,0,100,0.00,40.00,0,-999,0,0.00
2014-2-21,31,22,11,-100,-100,-100,0,0,100,0.00,40.00,0,-999,0,0.00
2014-2-22,25,17,1,-100,-100,-100,0,0,100,0.00,40.00,0,-999,0,0.00
2014-2-23,32,19,2,-100,-100,-100,0,0,100,0.00,40.00,0,-999,0,0.00
2014-2-24,39,32,27,-100,-100,-100,0,0,100,0.00,40.00,0,-999,0,0.00
2014-2-25,34,24,-4,-100,-100,-100,0,0,100,0.00,40.00,0,-999,0,0.00
2014-2-26,45,18,-8,-100,-100,-100,0,0,100,0.00,40.00,0,-999,0,0.00
2014-2-27,49,30,5,-100,-100,-100,0,0,100,0.00,40.00,0,-999,0,0.00
2014-2-28,36,32,19,-100,-100,-100,0,0,100,0.00,40.00,0,-999,0,0.00
2014-3-1,19,7,1,-100,-100,-100,0,0,100,0.00,40.00,0,-999,0,0.00
2014-3-2,34,20,-2,-100,-100,-100,0,0,100,0.00,40.00,0,-999,0,0.00
2014-3-3,36,33,31,-100,-100,-100,0,0,100,0.00,40.00,0,-999,0,0.00
2014-3-4,46,32,18,-100,-100,-100,0,0,100,0.00,40.00,0,-999,0,0.00
2014-3-5,40,33,15,-100,-100,-100,0,0,100,0.00,40.00,0,-999,0,0.00
2014-3-6,37,34,29,-100,-100,-100,0,0,100,0.00,40.00,0,-999,0,0.00
2014-3-7,45,30,19,-100,-100,-100,0,0,100,0.00,40.00,0,-999,0,0.00
2014-3-8,44,29,9,-100,-100,-100,0,0,100,0.00,40.00,0,-999,0,0.00
2014-3-9,43,35,32,-100,-100,-100,0,0,100,0.00,40.00,0,-999,0,0.00
2014-3-10,40,36,29,-100,-100,-100,0,0,100,0.00,40.00,0,-999,0,0.00
2014-3-11,42,28,14,-100,-100,-100,0,0,100,0.00,40.00,0,-999,0,0.00
2014-3-12,46,20,2,-100,-100,-100,0,0,100,0.00,40.00,0,-999,0,0.00
2014-3-13,47,24,7,-100,-100,-100,0,0,100,0.00,40.00,0,-999,0,0.00
2014-3-14,47,26,8,-100,-100,-100,0,0,100,0.00,40.00,0,-999,0,0.00
2014-3-15,46,31,17,-100,-100,-100,0,0,100,0.00,40.00,0,-999,0,0.00
2014-3-16,51,36,22,-100,-100,-100,0,0,100,0.00,40.00,0,-999,0,0.00
2014-3-17,39,34,27,-100,-100,-100,0,0,100,0.00,40.00,0,-999,0,0.00
2014-3-18,38,23,7,-100,-100,-100,0,0,100,0.00,40.00,0,-999,0,0.00
2014-3-19,39,34,29,-100,-100,-100,0,0,100,0.00,40.00,0,-999,0,0.00
2014-3-20,44,32,21,-100,-100,-100,0,0,100,0.00,40.00,0,-999,0,0.00
2014-3-21,37,22,-2,-100,-100,-100,0,0,100,0.00,40.00,0,-999,0,0.00
2014-3-22,35,22,-1,-100,-100,-100,0,0,100,0.00,40.00,0,-999,0,0.00
2014-3-23,39,24,9,-100,-100,-100,0,0,100,0.00,40.00,0,-999,0,0.00
2014-3-24,45,27,5,-100,-100,-100,0,0,100,0.00,40.00,0,-999,0,0.00
2014-3-25,56,33,13,-100,-100,-100,0,0,100,0.00,40.00,0,-999,0,0.00
2014-3-26,46,35,27,-100,-100,-100,0,0,100,0.00,40.00,0,-999,0,0.00
2014-3-27,38,28,22,-100,-100,-100,0,0,100,0.00,40.00,0,-999,0,0.00
2014-3-28,43,30,21,-100,-100,-100,0,0,100,0.00,40.00,0,-999,0,0.00
2014-3-29,42,34,31,-100,-100,-100,0,0,100,0.00,40.00,0,-999,0,0.00
2014-3-30,34,30,26,-100,-100,-100,0,0,100,0.00,40.00,0,-999,0,0.00
2014-3-31,40,27,12,-100,-100,-100,0,0,100,0.00,40.00,0,-999,0,0.00
2014-4-1,50,28,5,-100,-100,-100,0,0,100,0.00,40.00,0,-999,0,0.00
2014-4-2,39,29,23,-100,-100,-100,0,0,100,0.00,40.00,0,-999,0,0.00
2014-4-3,46,29,19,-100,-100,-100,0,0,100,0.00,40.00,0,-999,0,0.00
2014-4-4,45,28,12,-100,-100,-100,0,0,100,0.00,40.00,0,-999,0,0.00
2014-4-5,47,35,28,-100,-100,-100,0,0,100,0.00,40.00,0,-999,0,0.00
2014-4-6,46,34,26,-100,-100,-100,0,0,100,0.00,40.00,0,-999,0,0.00
2014-4-7,55,34,18,-100,-100,-100,0,0,100,0.00,40.00,0,-999,0,0.00
2014-4-8,60,41,21,-100,-100,-100,0,0,100,0.00,40.00,0,-999,0,0.00
2014-4-9,57,44,31,-100,-100,-100,0,0,100,0.00,40.00,0,-999,0,0.00
2014-4-10,54,39,26,-100,-100,-100,0,0,100,0.00,40.00,0,-999,0,0.00
2014-4-11,58,43,25,-100,-100,-100,0,0,100,0.00,40.00,0,-999,0,0.00
2014-4-12,54,39,30,-100,-100,-100,0,0,100,0.00,40.00,0,-999,0,0.00
2014-4-13,32,26,14,-100,-100,-100,0,0,100,0.00,40.00,0,-999,0,0.00
2014-4-14,48,27,2,-100,-100,-100,0,0,100,0.00,40.00,0,-999,0,0.00
2014-4-15,45,35,24,-100,-100,-100,0,0,100,0.00,40.00,0,-999,0,0.00
2014-4-16,46,32,16,-100,-100,-100,0,0,100,0.00,40.00,0,-999,0,0.00
2014-4-17,56,39,19,-100,-100,-100,0,0,100,0.00,40.00,0,-999,0,0.00
2014-4-18,42,37,31,-100,-100,-100,0,0,100,0.00,40.00,0,-999,0,0.00
2014-4-19,58,40,21,-100,-100,-100,0,0,100,0.00,40.00,0,-999,0,0.00
2014-4-20,58,42,26,-100,-100,-100,0,0,100,0.00,40.00,0,-999,0,0.00
2014-4-21,63,41,20,-100,-100,-100,0,0,100,0.00,40.00,0,-999,0,0.00
2014-4-22,61,44,34,-100,-100,-100,0,0,100,0.00,40.00,0,-999,0,0.00
2014-4-23,40,33,26,-100,-100,-100,0,0,100,0.00,40.00,0,-999,0,0.00
2014-4-24,39,33,25,-100,-100,-100,0,0,100,0.00,40.00,0,-999,0,0.00
2014-4-25,48,38,31,-100,-100,-100,0,0,100,0.00,40.00,0,-999,0,0.00
2014-4-26,45,36,32,-100,-100,-100,0,0,100,0.00,40.00,0,-999,0,0.00
2014-4-27,43,34,26,-100,-100,-100,0,0,100,0.00,40.00,0,-999,0,0.00
2014-4-28,42,30,19,-100,-100,-100,0,0,100,0.00,40.00,0,-999,0,0.00
2014-4-29,44,30,15,-100,-100,-100,0,0,100,0.00,40.00,0,-999,0,0.00
2014-4-30,51,36,16,-100,-100,-100,0,0,100,0.00,40.00,0,-999,0,0.00
2014-5-1,68,44,19,-100,-100,-100,0,0,100,0.00,40.00,0,-999,0,0.00
2014-5-2,68,47,26,-100,-100,-100,0,0,100,0.00,40.00,0,-999,0,0.00
2014-5-3,67,50,27,-100,-100,-100,0,0,100,0.00,40.00,0,-999,0,0.00
2014-5-4,56,47,34,-100,-100,-100,0,0,100,0.00,40.00,0,-999,0,0.00
2014-5-5,56,42,28,-100,-100,-100,0,0,100,0.00,40.00,0,-999,0,0.00
2014-5-6,44,36,28,-100,-100,-100,0,0,100,0.00,40.00,0,-999,0,0.00
2014-5-13,55,45,28,-100,-100,-100,0,0,100,0.00,40.00,0,-999,0,0.00
2014-5-14,62,44,20,-100,-100,-100,0,0,100,0.00,40.00,0,-999,0,0.00
2014-5-15,68,48,26,-100,-100,-100,0,0,100,0.00,40.00,0,-999,0,0.00
2014-5-16,67,47,30,-100,-100,-100,0,0,100,0.00,40.00,0,-999,0,0.00
2014-5-17,65,50,39,-100,-100,-100,0,0,100,0.00,40.00,0,-999,0,0.00
2014-5-18,61,45,29,-100,-100,-100,0,0,100,0.00,40.00,0,-999,0,0.00
2014-5-19,57,43,29,-100,-100,-100,0,0,100,0.00,40.00,0,-999,0,0.00
2014-5-20,59,44,26,-100,-100,-100,0,0,100,0.00,40.00,0,-999,0,0.00
2014-5-21,72,51,28,-100,-100,-100,0,0,100,0.00,40.00,0,-999,0,0.00
2014-5-22,73,53,27,-100,-100,-100,0,0,100,0.00,40.00,0,-999,0,0.00
2014-5-23,77,55,27,-100,-100,-100,0,0,100,0.00,40.00,0,-999,0,0.00
2014-5-24,74,55,32,-100,-100,-100,0,0,100,0.00,40.00,0,-999,0,0.00
2014-5-25,72,54,32,-100,-100,-100,0,0,100,0.00,40.00,0,-999,0,0.00
2014-5-26,74,57,32,-100,-100,-100,0,0,100,0.00,40.00,0,-999,0,0.00
2014-5-27,74,56,30,-100,-100,-100,0,0,100,0.00,40.00,0,-999,0,0.00
2014-5-28,78,57,31,-100,-100,-100,0,0,100,0.00,40.00,0,-999,0,0.00
2014-5-29,66,53,32,-100,-100,-100,0,0,100,0.00,40.00,0,-999,0,0.00
2014-5-30,75,49,24,-100,-100,-100,0,0,100,0.00,40.00,0,-999,0,0.00
2014-5-31,61,49,35,-100,-100,-100,0,0,100,0.00,40.00,0,-999,0,0.00
2014-6-1,65,50,35,-100,-100,-100,0,0,100,0.00,40.00,0,-999,0,0.00
2014-6-2,73,55,36,-100,-100,-100,0,0,100,0.00,40.00,0,-999,0,0.00
2014-6-3,65,50,39,-100,-100,-100,0,0,100,0.00,40.00,0,-999,0,0.00
2014-6-4,65,47,30,-100,-100,-100,0,0,100,0.00,40.00,0,-999,0,0.00
2014-6-5,70,51,27,-100,-100,-100,0,0,100,0.00,40.00,0,-999,0,0.00
2014-6-6,65,49,27,-100,-100,-100,0,0,100,0.00,40.00,0,-999,0,0.00
2014-6-7,68,51,27,-100,-100,-100,0,0,100,0.00,40.00,0,-999,0,0.00
2014-6-8,68,50,34,-100,-100,-100,0,0,100,0.00,40.00,0,-999,0,0.00
2014-6-9,72,53,27,-100,-100,-100,0,0,100,0.00,40.00,0,-999,0,0.00
2014-6-10,71,52,30,-100,-100,-100,0,0,100,0.00,40.00,0,-999,0,0.00
2014-6-11,69,52,30,-100,-100,-100,0,0,100,0.00,40.00,0,-999,0,0.00
2014-6-12,76,55,27,-100,-100,-100,0,0,100,0.00,40.00,0,-999,0,0.00
2014-6-13,66,58,42,-100,-100,-100,0,0,100,0.00,40.00,0,-999,0,0.00
2014-6-14,58,46,34,-100,-100,-100,0,0,100,0.00,40.00,0,-999,0,0.00
2014-6-15,65,48,29,-100,-100,-100,0,0,100,0.00,40.00,0,-999,0,0.00
2014-6-16,55,43,30,-100,-100,-100,0,0,100,0.00,40.00,0,-999,0,0.00
2014-6-17,47,41,37,-100,-100,-100,0,0,100,0.00,40.00,0,-999,0,0.00
2014-6-18,45,29,13,-100,-100,-100,0,0,100,0.00,40.00,0,-999,0,0.00
2014-6-19,13,12,12,-100,-100,-100,0,0,100,0.00,40.00,0,-999,0,0.00
2014-8-12,84,74,56,-100,0,200,0,0,100,0.00,40.00,0,0,0,0.00
2014-8-13,79,62,50,-100,0,200,0,0,100,0.00,40.00,0,0,0,0.00
2014-8-14,79,63,53,-100,0,200,0,0,100,0.00,40.00,0,0,0,0.00
2014-8-15,80,60,38,-100,0,200,0,0,100,0.00,40.00,0,0,0,0.00
2014-8-16,79,62,39,-100,0,200,0,0,100,0.00,40.00,0,0,0,0.00
2014-8-17,80,61,38,-100,0,200,0,0,100,0.00,40.00,0,0,0,0.00
2014-8-18,79,55,38,-100,0,200,0,0,100,0.00,40.00,0,0,0,0.00
2014-8-19,75,54,32,-100,0,200,0,0,100,0.00,40.00,0,0,0,0.00
2014-8-20,66,49,42,-100,0,200,0,0,100,0.00,40.00,0,0,0,0.00
2014-8-21,67,51,44,-100,0,200,0,0,100,0.00,40.00,0,0,0,0.00